createdAt,value
2019-05-11T00:00:23.343Z,95.72
2019-05-11T00:01:23.285Z,95.51
2019-05-11T00:02:23.278Z,95.41
2019-05-11T00:03:23.274Z,95.31
2019-05-11T00:04:23.274Z,95.51
2019-05-11T00:05:23.234Z,95.81
2019-05-11T00:06:23.274Z,95.61
2019-05-11T00:07:23.213Z,95.41
2019-05-11T00:08:23.210Z,95.61
2019-05-11T00:09:23.192Z,95.61
2019-05-11T00:10:23.748Z,95.61
2019-05-11T00:11:23.167Z,95.61
2019-05-11T00:12:23.180Z,95.51
2019-05-11T00:13:23.150Z,95.61
2019-05-11T00:14:23.145Z,95.72
2019-05-11T00:15:23.129Z,95.72
2019-05-11T00:16:23.189Z,95.72
2019-05-11T00:17:23.129Z,95.72
2019-05-11T00:18:30.080Z,95.72
2019-05-11T00:19:23.082Z,95.72
2019-05-11T00:20:23.072Z,95.41
2019-05-11T00:21:23.062Z,95.81
2019-05-11T00:22:23.063Z,95.00
2019-05-11T00:23:23.055Z,94.90
2019-05-11T00:24:23.042Z,95.10
2019-05-11T00:25:23.080Z,95.20
2019-05-11T00:26:23.066Z,95.31
2019-05-11T00:27:23.050Z,95.00
2019-05-11T00:28:22.990Z,95.20
2019-05-11T00:29:22.978Z,95.10
2019-05-11T00:30:22.999Z,95.41
2019-05-11T00:31:22.955Z,95.41
2019-05-11T00:32:23.139Z,95.72
2019-05-11T00:33:22.950Z,95.41
2019-05-11T00:34:22.923Z,95.61
2019-05-11T00:35:22.945Z,95.31
2019-05-11T00:36:22.899Z,95.31
2019-05-11T00:37:22.898Z,95.31
2019-05-11T00:38:22.885Z,94.59
2019-05-11T00:39:22.903Z,94.43
2019-05-11T00:40:22.866Z,94.53
2019-05-11T00:41:22.945Z,94.84
2019-05-11T00:42:22.833Z,94.84
2019-05-11T00:43:22.823Z,94.64
2019-05-11T00:44:22.818Z,94.64
2019-05-11T00:45:22.837Z,94.33
2019-05-11T00:46:22.789Z,94.23
2019-05-11T00:47:22.829Z,94.12
2019-05-11T00:48:22.771Z,94.33
2019-05-11T00:49:22.758Z,94.43
2019-05-11T00:50:38.836Z,94.02
2019-05-11T00:51:23.731Z,94.12
2019-05-11T00:52:22.726Z,94.23
2019-05-11T00:53:22.717Z,94.23
2019-05-11T00:54:22.699Z,93.82
2019-05-11T00:55:22.695Z,94.02
2019-05-11T00:56:22.690Z,94.23
2019-05-11T00:57:22.756Z,94.02
2019-05-11T00:58:22.657Z,93.82
2019-05-11T00:59:22.646Z,94.43
2019-05-11T01:00:22.700Z,94.43
2019-05-11T01:01:22.631Z,94.12
2019-05-11T01:02:22.617Z,94.12
2019-05-11T01:03:22.615Z,94.48
2019-05-11T01:04:22.607Z,93.71
2019-05-11T01:05:22.715Z,93.92
2019-05-11T01:06:22.581Z,94.07
2019-05-11T01:07:22.621Z,93.96
2019-05-11T01:08:22.566Z,94.33
2019-05-11T01:09:22.536Z,94.07
2019-05-11T01:10:28.973Z,93.76
2019-05-11T01:11:23.516Z,93.86
2019-05-11T01:12:22.503Z,94.07
2019-05-11T01:13:22.584Z,93.66
2019-05-11T01:14:22.487Z,94.07
2019-05-11T01:15:22.478Z,93.86
2019-05-11T01:16:22.515Z,93.76
2019-05-11T01:17:22.454Z,93.45
2019-05-11T01:18:22.473Z,93.05
2019-05-11T01:19:22.446Z,93.76
2019-05-11T01:20:22.442Z,93.86
2019-05-11T01:21:22.414Z,93.86
2019-05-11T01:22:29.379Z,93.55
2019-05-11T01:23:22.396Z,93.25
2019-05-11T01:24:22.386Z,93.45
2019-05-11T01:25:22.371Z,93.55
2019-05-11T01:26:22.353Z,93.25
2019-05-11T01:27:22.371Z,93.55
2019-05-11T01:28:22.343Z,93.55
2019-05-11T01:29:22.439Z,93.45
2019-05-11T01:30:22.373Z,93.86
2019-05-11T01:31:22.314Z,93.55
2019-05-11T01:32:22.294Z,93.96
2019-05-11T01:33:22.320Z,94.21
2019-05-11T01:34:22.307Z,94.27
2019-05-11T01:35:22.712Z,93.70
2019-05-11T01:36:22.254Z,93.91
2019-05-11T01:37:22.241Z,93.86
2019-05-11T01:38:22.235Z,94.07
2019-05-11T01:39:22.240Z,93.96
2019-05-11T01:40:22.204Z,93.91
2019-05-11T01:41:22.204Z,93.60
2019-05-11T01:42:22.180Z,93.35
2019-05-11T01:43:22.171Z,93.91
2019-05-11T01:44:22.158Z,93.35
2019-05-11T01:45:22.253Z,93.80
2019-05-11T01:46:22.188Z,93.76
2019-05-11T01:47:22.130Z,93.60
2019-05-11T01:48:22.136Z,93.60
2019-05-11T01:49:22.104Z,93.86
2019-05-11T01:50:22.102Z,93.60
2019-05-11T01:51:22.098Z,93.91
2019-05-11T01:52:22.157Z,93.80
2019-05-11T01:53:22.064Z,93.60
2019-05-11T01:54:29.028Z,93.60
2019-05-11T01:55:22.039Z,93.60
2019-05-11T01:56:22.031Z,93.80
2019-05-11T01:57:22.019Z,93.80
2019-05-11T01:58:22.060Z,93.91
2019-05-11T01:59:22.004Z,93.60
2019-05-11T02:00:22.027Z,93.65
2019-05-11T02:01:21.979Z,93.91
2019-05-11T02:02:21.965Z,93.95
2019-05-11T02:03:21.957Z,93.40
2019-05-11T02:04:22.039Z,93.65
2019-05-11T02:05:21.932Z,93.74
2019-05-11T02:06:21.939Z,93.65
2019-05-11T02:07:21.921Z,94.06
2019-05-11T02:08:21.912Z,94.06
2019-05-11T02:09:21.894Z,94.20
2019-05-11T02:10:21.926Z,94.30
2019-05-11T02:11:21.871Z,93.89
2019-05-11T02:12:21.857Z,94.71
2019-05-11T02:13:21.927Z,93.99
2019-05-11T02:14:21.852Z,94.30
2019-05-11T02:15:21.827Z,94.20
2019-05-11T02:16:21.821Z,94.20
2019-05-11T02:17:21.804Z,94.10
2019-05-11T02:18:21.858Z,93.89
2019-05-11T02:19:21.793Z,94.20
2019-05-11T02:20:21.767Z,93.99
2019-05-11T02:21:21.762Z,94.24
2019-05-11T02:22:21.748Z,93.84
2019-05-11T02:23:21.739Z,94.24
2019-05-11T02:24:21.779Z,94.45
2019-05-11T02:25:21.762Z,94.55
2019-05-11T02:26:28.683Z,94.45
2019-05-11T02:27:21.690Z,94.55
2019-05-11T02:28:21.689Z,94.34
2019-05-11T02:29:21.671Z,94.51
2019-05-11T02:30:21.665Z,94.34
2019-05-11T02:31:21.674Z,93.93
2019-05-11T02:32:21.647Z,94.45
2019-05-11T02:33:21.646Z,93.99
2019-05-11T02:34:21.679Z,94.14
2019-05-11T02:35:21.615Z,94.20
2019-05-11T02:36:21.635Z,93.99
2019-05-11T02:37:21.630Z,94.10
2019-05-11T02:38:21.580Z,93.79
2019-05-11T02:39:21.581Z,94.10
2019-05-11T02:40:21.570Z,93.89
2019-05-11T02:41:35.623Z,93.38
2019-05-11T02:42:22.589Z,93.89
2019-05-11T02:43:21.577Z,93.48
2019-05-11T02:44:21.515Z,93.89
2019-05-11T02:45:21.514Z,93.79
2019-05-11T02:46:21.489Z,92.56
2019-05-11T02:47:21.484Z,92.36
2019-05-11T02:48:21.507Z,92.25
2019-05-11T02:49:21.512Z,91.64
2019-05-11T02:50:21.448Z,91.85
2019-05-11T02:51:21.438Z,91.70
2019-05-11T02:52:21.425Z,92.21
2019-05-11T02:53:21.413Z,92.32
2019-05-11T02:54:21.453Z,91.70
2019-05-11T02:55:21.562Z,91.85
2019-05-11T02:56:21.407Z,91.70
2019-05-11T02:57:21.371Z,91.50
2019-05-11T02:58:28.339Z,91.50
2019-05-11T02:59:21.352Z,91.50
2019-05-11T03:00:21.426Z,91.50
2019-05-11T03:01:21.331Z,91.80
2019-05-11T03:02:21.339Z,91.39
2019-05-11T03:03:21.321Z,91.50
2019-05-11T03:04:21.294Z,91.86
2019-05-11T03:05:21.283Z,91.70
2019-05-11T03:06:21.297Z,91.70
2019-05-11T03:07:21.264Z,90.99
2019-05-11T03:08:21.250Z,91.39
2019-05-11T03:09:21.238Z,90.99
2019-05-11T03:10:21.264Z,90.53
2019-05-11T03:11:21.222Z,91.09
2019-05-11T03:12:21.216Z,90.68
2019-05-11T03:13:21.267Z,90.88
2019-05-11T03:14:21.194Z,90.58
2019-05-11T03:15:21.176Z,91.19
2019-05-11T03:16:21.252Z,91.09
2019-05-11T03:17:21.214Z,90.58
2019-05-11T03:18:21.144Z,90.47
2019-05-11T03:19:21.134Z,90.68
2019-05-11T03:20:21.124Z,90.58
2019-05-11T03:21:21.166Z,90.72
2019-05-11T03:22:21.102Z,90.99
2019-05-11T03:23:21.125Z,90.37
2019-05-11T03:24:24.014Z,90.58
2019-05-11T03:25:21.067Z,91.19
2019-05-11T03:26:21.075Z,90.72
2019-05-11T03:27:21.054Z,90.68
2019-05-11T03:28:21.148Z,90.78
2019-05-11T03:29:21.066Z,90.99
2019-05-11T03:30:28.504Z,89.39
2019-05-11T03:31:21.008Z,89.80
2019-05-11T03:32:20.996Z,90.11
2019-05-11T03:33:20.989Z,90.58
2019-05-11T03:34:20.977Z,90.78
2019-05-11T03:35:21.040Z,89.97
2019-05-11T03:36:20.945Z,89.76
2019-05-11T03:37:20.931Z,89.18
2019-05-11T03:38:20.929Z,89.70
2019-05-11T03:39:20.915Z,89.80
2019-05-11T03:40:20.936Z,89.86
2019-05-11T03:41:20.910Z,89.76
2019-05-11T03:42:20.882Z,88.23
2019-05-11T03:43:20.938Z,87.82
2019-05-11T03:44:20.873Z,87.82
2019-05-11T03:45:20.849Z,88.23
2019-05-11T03:46:20.846Z,88.64
2019-05-11T03:47:20.830Z,88.29
2019-05-11T03:48:20.852Z,87.98
2019-05-11T03:49:20.808Z,88.39
2019-05-11T03:50:20.809Z,87.57
2019-05-11T03:51:20.800Z,87.57
2019-05-11T03:52:20.771Z,85.12
2019-05-11T03:53:20.765Z,84.91
2019-05-11T03:54:20.798Z,85.53
2019-05-11T03:55:20.815Z,86.76
2019-05-11T03:56:20.757Z,86.96
2019-05-11T03:57:20.726Z,85.73
2019-05-11T03:58:25.434Z,86.44
2019-05-11T03:59:21.699Z,86.38
2019-05-11T04:00:20.755Z,86.65
2019-05-11T04:01:20.675Z,86.44
2019-05-11T04:02:27.817Z,86.69
2019-05-11T04:03:20.654Z,87.00
2019-05-11T04:04:20.641Z,87.20
2019-05-11T04:05:20.714Z,87.30
2019-05-11T04:06:20.624Z,86.55
2019-05-11T04:07:20.662Z,86.55
2019-05-11T04:08:20.603Z,85.94
2019-05-11T04:09:20.735Z,85.36
2019-05-11T04:10:24.811Z,84.61
2019-05-11T04:11:20.576Z,84.41
2019-05-11T04:12:33.968Z,84.20
2019-05-11T04:13:21.658Z,84.50
2019-05-11T04:14:20.538Z,84.91
2019-05-11T04:15:20.540Z,84.41
2019-05-11T04:16:20.596Z,84.71
2019-05-11T04:17:20.509Z,84.30
2019-05-11T04:18:20.503Z,84.50
2019-05-11T04:19:20.493Z,84.61
2019-05-11T04:20:20.552Z,84.50
2019-05-11T04:21:20.512Z,85.22
2019-05-11T04:22:20.449Z,85.83
2019-05-11T04:23:20.440Z,85.89
2019-05-11T04:24:20.442Z,85.63
2019-05-11T04:25:20.424Z,84.81
2019-05-11T04:26:20.409Z,84.81
2019-05-11T04:27:20.439Z,85.08
2019-05-11T04:28:20.395Z,85.18
2019-05-11T04:29:20.424Z,85.49
2019-05-11T04:30:20.379Z,86.00
2019-05-11T04:31:20.350Z,84.26
2019-05-11T04:32:20.340Z,83.14
2019-05-11T04:33:20.363Z,82.83
2019-05-11T04:34:29.852Z,82.69
2019-05-11T04:35:20.327Z,81.91
2019-05-11T04:36:20.302Z,82.22
2019-05-11T04:37:20.284Z,82.39
2019-05-11T04:38:20.302Z,84.42
2019-05-11T04:39:20.314Z,84.33
2019-05-11T04:40:20.333Z,84.63
2019-05-11T04:41:20.293Z,83.14
2019-05-11T04:42:20.258Z,82.69
2019-05-11T04:43:20.220Z,83.71
2019-05-11T04:44:20.220Z,83.54
2019-05-11T04:45:20.240Z,84.74
2019-05-11T04:46:20.197Z,83.71
2019-05-11T04:47:20.180Z,83.10
2019-05-11T04:48:20.191Z,82.22
2019-05-11T04:49:20.176Z,83.65
2019-05-11T04:50:20.143Z,83.24
2019-05-11T04:51:20.237Z,83.44
2019-05-11T04:52:20.137Z,83.24
2019-05-11T04:53:20.118Z,82.83
2019-05-11T04:54:20.102Z,84.47
2019-05-11T04:55:20.156Z,84.06
2019-05-11T04:56:20.105Z,84.57
2019-05-11T04:57:20.101Z,84.16
2019-05-11T04:58:20.081Z,84.88
2019-05-11T04:59:20.103Z,85.28
2019-05-11T05:00:20.040Z,83.24
2019-05-11T05:01:20.027Z,83.14
2019-05-11T05:02:20.038Z,83.54
2019-05-11T05:03:20.004Z,84.22
2019-05-11T05:04:19.992Z,83.20
2019-05-11T05:05:20.073Z,82.89
2019-05-11T05:06:27.859Z,82.59
2019-05-11T05:07:19.958Z,82.59
2019-05-11T05:08:21.052Z,82.69
2019-05-11T05:09:21.004Z,83.65
2019-05-11T05:10:22.231Z,83.44
2019-05-11T05:11:19.922Z,82.42
2019-05-11T05:12:19.907Z,83.65
2019-05-11T05:13:23.249Z,83.24
2019-05-11T05:14:20.928Z,84.33
2019-05-11T05:15:19.868Z,84.36
2019-05-11T05:16:19.858Z,82.69
2019-05-11T05:17:19.918Z,82.28
2019-05-11T05:18:19.842Z,82.79
2019-05-11T05:19:19.886Z,82.69
2019-05-11T05:20:19.820Z,82.28
2019-05-11T05:21:19.812Z,82.49
2019-05-11T05:22:19.855Z,82.28
2019-05-11T05:23:19.786Z,82.89
2019-05-11T05:24:19.776Z,82.28
2019-05-11T05:25:19.779Z,83.20
2019-05-11T05:26:19.818Z,84.42
2019-05-11T05:27:19.742Z,83.71
2019-05-11T05:28:19.809Z,83.67
2019-05-11T05:29:19.726Z,84.22
2019-05-11T05:30:19.723Z,84.08
2019-05-11T05:31:19.753Z,82.79
2019-05-11T05:32:19.771Z,83.47
2019-05-11T05:33:19.700Z,84.12
2019-05-11T05:34:19.747Z,82.35
2019-05-11T05:35:19.689Z,81.73
2019-05-11T05:36:19.668Z,81.23
2019-05-11T05:37:19.636Z,81.94
2019-05-11T05:38:26.604Z,81.23
2019-05-11T05:39:19.620Z,80.91
2019-05-11T05:40:19.599Z,81.32
2019-05-11T05:41:19.810Z,81.05
2019-05-11T05:42:19.573Z,81.26
2019-05-11T05:43:27.950Z,80.96
2019-05-11T05:44:20.553Z,81.26
2019-05-11T05:45:19.542Z,81.37
2019-05-11T05:46:19.533Z,80.96
2019-05-11T05:47:19.540Z,81.67
2019-05-11T05:48:19.589Z,81.26
2019-05-11T05:49:19.502Z,81.37
2019-05-11T05:50:19.492Z,81.87
2019-05-11T05:51:19.526Z,82.59
2019-05-11T05:52:19.500Z,82.69
2019-05-11T05:53:19.497Z,83.10
2019-05-11T05:54:19.448Z,82.79
2019-05-11T05:55:20.379Z,82.59
2019-05-11T05:56:19.427Z,83.00
2019-05-11T05:57:19.453Z,82.59
2019-05-11T05:58:19.404Z,82.59
2019-05-11T05:59:19.413Z,82.69
2019-05-11T06:00:19.397Z,83.00
2019-05-11T06:01:19.400Z,83.20
2019-05-11T06:02:19.358Z,82.75
2019-05-11T06:03:19.349Z,82.75
2019-05-11T06:04:19.415Z,82.65
2019-05-11T06:05:19.333Z,82.08
2019-05-11T06:06:19.314Z,80.99
2019-05-11T06:07:19.303Z,82.69
2019-05-11T06:08:19.303Z,82.69
2019-05-11T06:09:19.291Z,82.32
2019-05-11T06:10:26.418Z,83.00
2019-05-11T06:11:19.260Z,82.49
2019-05-11T06:12:19.247Z,82.49
2019-05-11T06:13:19.243Z,82.83
2019-05-11T06:14:19.232Z,82.83
2019-05-11T06:15:19.919Z,83.14
2019-05-11T06:16:19.218Z,82.63
2019-05-11T06:17:19.201Z,82.53
2019-05-11T06:18:19.190Z,82.22
2019-05-11T06:19:19.179Z,82.53
2019-05-11T06:20:19.177Z,83.04
2019-05-11T06:21:19.231Z,83.24
2019-05-11T06:22:19.141Z,83.04
2019-05-11T06:23:19.136Z,83.24
2019-05-11T06:24:19.205Z,83.14
2019-05-11T06:25:19.114Z,82.32
2019-05-11T06:26:19.100Z,82.63
2019-05-11T06:27:19.115Z,83.07
2019-05-11T06:28:19.082Z,83.38
2019-05-11T06:29:21.655Z,83.18
2019-05-11T06:30:19.059Z,83.59
2019-05-11T06:31:19.044Z,83.69
2019-05-11T06:32:19.050Z,84.09
2019-05-11T06:33:19.076Z,84.20
2019-05-11T06:34:19.020Z,84.61
2019-05-11T06:35:22.411Z,83.65
2019-05-11T06:36:19.038Z,83.65
2019-05-11T06:37:19.026Z,84.06
2019-05-11T06:38:18.980Z,83.65
2019-05-11T06:39:19.021Z,84.47
2019-05-11T06:40:18.953Z,84.06
2019-05-11T06:41:18.933Z,83.34
2019-05-11T06:42:25.916Z,82.83
2019-05-11T06:43:18.922Z,82.49
2019-05-11T06:44:18.924Z,81.77
2019-05-11T06:45:18.897Z,82.01
2019-05-11T06:46:18.889Z,82.63
2019-05-11T06:47:18.875Z,82.59
2019-05-11T06:48:18.871Z,82.49
2019-05-11T06:49:18.951Z,82.69
2019-05-11T06:50:18.845Z,82.18
2019-05-11T06:51:18.835Z,82.79
2019-05-11T06:52:18.887Z,82.08
2019-05-11T06:53:18.808Z,81.77
2019-05-11T06:54:18.803Z,82.45
2019-05-11T06:55:19.427Z,82.79
2019-05-11T06:56:18.793Z,82.79
2019-05-11T06:57:18.820Z,81.63
2019-05-11T06:58:18.759Z,81.02
2019-05-11T06:59:18.742Z,80.91
2019-05-11T07:00:18.792Z,81.32
2019-05-11T07:01:18.726Z,81.37
2019-05-11T07:02:18.712Z,81.05
2019-05-11T07:03:18.760Z,81.12
2019-05-11T07:04:18.688Z,80.85
2019-05-11T07:05:18.683Z,81.26
2019-05-11T07:06:18.679Z,81.37
2019-05-11T07:07:18.651Z,81.12
2019-05-11T07:08:18.687Z,81.43
2019-05-11T07:09:18.653Z,81.02
2019-05-11T07:10:18.649Z,80.57
2019-05-11T07:11:18.665Z,80.47
2019-05-11T07:12:18.667Z,80.20
2019-05-11T07:13:18.588Z,80.57
2019-05-11T07:14:25.973Z,79.66
2019-05-11T07:15:18.562Z,79.86
2019-05-11T07:16:18.559Z,80.27
2019-05-11T07:17:18.598Z,80.57
2019-05-11T07:18:18.545Z,79.96
2019-05-11T07:19:18.527Z,79.96
2019-05-11T07:20:18.513Z,80.27
2019-05-11T07:21:18.531Z,79.55
2019-05-11T07:22:18.491Z,79.55
2019-05-11T07:23:18.499Z,79.55
2019-05-11T07:24:18.518Z,80.27
2019-05-11T07:25:18.456Z,80.07
2019-05-11T07:26:18.450Z,80.57
2019-05-11T07:27:18.442Z,80.51
2019-05-11T07:28:18.434Z,80.30
2019-05-11T07:29:18.539Z,80.82
2019-05-11T07:30:18.411Z,80.82
2019-05-11T07:31:18.400Z,81.02
2019-05-11T07:32:25.029Z,80.30
2019-05-11T07:33:19.370Z,80.51
2019-05-11T07:34:18.564Z,80.41
2019-05-11T07:35:18.892Z,80.20
2019-05-11T07:36:18.334Z,80.20
2019-05-11T07:37:18.613Z,80.30
2019-05-11T07:38:18.558Z,80.10
2019-05-11T07:39:18.756Z,80.20
2019-05-11T07:40:18.940Z,80.47
2019-05-11T07:41:18.340Z,79.45
2019-05-11T07:42:18.275Z,80.37
2019-05-11T07:43:18.942Z,80.47
2019-05-11T07:44:19.113Z,79.86
2019-05-11T07:45:19.250Z,80.27
2019-05-11T07:46:25.977Z,79.45
2019-05-11T07:47:18.798Z,79.55
2019-05-11T07:48:18.769Z,80.27
2019-05-11T07:49:18.198Z,80.41
2019-05-11T07:50:18.379Z,80.27
2019-05-11T07:51:18.404Z,80.37
2019-05-11T07:52:18.322Z,80.43
2019-05-11T07:53:18.711Z,81.39
2019-05-11T07:54:18.833Z,80.74
2019-05-11T07:55:19.156Z,80.47
2019-05-11T07:56:18.915Z,80.57
2019-05-11T07:57:18.730Z,80.78
2019-05-11T07:58:20.255Z,80.43
2019-05-11T07:59:18.454Z,79.82
2019-05-11T08:00:18.732Z,79.93
2019-05-11T08:01:18.863Z,80.23
2019-05-11T08:02:18.086Z,80.23
2019-05-11T08:03:18.231Z,79.93
2019-05-11T08:04:18.454Z,79.82
2019-05-11T08:05:18.191Z,79.62
2019-05-11T08:06:18.450Z,79.82
2019-05-11T08:07:18.249Z,79.72
2019-05-11T08:08:18.215Z,79.72
2019-05-11T08:09:18.797Z,79.72
2019-05-11T08:10:18.692Z,79.86
2019-05-11T08:11:18.377Z,80.07
2019-05-11T08:12:19.209Z,80.27
2019-05-11T08:13:17.984Z,80.37
2019-05-11T08:14:18.400Z,80.78
2019-05-11T08:15:18.586Z,79.75
2019-05-11T08:16:18.696Z,80.78
2019-05-11T08:17:18.698Z,80.84
2019-05-11T08:18:28.246Z,80.13
2019-05-11T08:19:18.631Z,79.82
2019-05-11T08:20:18.647Z,79.48
2019-05-11T08:21:18.068Z,79.48
2019-05-11T08:22:22.538Z,80.09
2019-05-11T08:23:18.830Z,79.17
2019-05-11T08:24:18.154Z,79.68
2019-05-11T08:25:18.346Z,79.07
2019-05-11T08:26:19.105Z,79.03
2019-05-11T08:27:18.704Z,77.91
2019-05-11T08:28:18.451Z,77.71
2019-05-11T08:29:18.559Z,77.61
2019-05-11T08:30:18.771Z,78.12
2019-05-11T08:31:18.736Z,78.73
2019-05-11T08:32:18.369Z,77.95
2019-05-11T08:33:18.302Z,78.56
2019-05-11T08:34:18.110Z,78.77
2019-05-11T08:35:17.969Z,77.34
2019-05-11T08:36:18.544Z,78.36
2019-05-11T08:37:18.902Z,78.97
2019-05-11T08:38:18.158Z,78.77
2019-05-11T08:39:18.334Z,79.07
2019-05-11T08:40:18.416Z,79.27
2019-05-11T08:41:18.407Z,79.07
2019-05-11T08:42:18.039Z,78.56
2019-05-11T08:43:18.050Z,78.46
2019-05-11T08:44:18.260Z,78.26
2019-05-11T08:45:24.208Z,77.55
2019-05-11T08:46:18.769Z,78.39
2019-05-11T08:47:17.883Z,78.97
2019-05-11T08:48:18.748Z,79.32
2019-05-11T08:49:19.000Z,79.21
2019-05-11T08:50:24.575Z,80.02
2019-05-11T08:51:18.682Z,79.93
2019-05-11T08:52:18.657Z,80.23
2019-05-11T08:53:17.953Z,80.37
2019-05-11T08:54:18.311Z,80.43
2019-05-11T08:55:18.957Z,80.64
2019-05-11T08:56:18.859Z,80.74
2019-05-11T08:57:18.049Z,80.43
2019-05-11T08:58:19.344Z,80.43
2019-05-11T08:59:18.704Z,79.89
2019-05-11T09:00:18.017Z,80.19
2019-05-11T09:01:18.310Z,79.79
2019-05-11T09:02:18.632Z,78.97
2019-05-11T09:03:17.964Z,80.09
2019-05-11T09:04:18.246Z,79.99
2019-05-11T09:05:18.720Z,80.23
2019-05-11T09:06:18.050Z,80.94
2019-05-11T09:07:18.430Z,81.25
2019-05-11T09:08:18.790Z,81.04
2019-05-11T09:09:18.154Z,81.04
2019-05-11T09:10:18.570Z,80.64
2019-05-11T09:11:19.004Z,81.35
2019-05-11T09:12:18.285Z,80.94
2019-05-11T09:13:18.533Z,80.54
2019-05-11T09:14:18.849Z,81.45
2019-05-11T09:15:32.430Z,80.29
2019-05-11T09:16:19.053Z,80.09
2019-05-11T09:17:18.227Z,80.84
2019-05-11T09:18:18.802Z,81.01
2019-05-11T09:19:17.889Z,80.70
2019-05-11T09:20:18.039Z,80.70
2019-05-11T09:21:19.097Z,81.21
2019-05-11T09:22:24.171Z,80.70
2019-05-11T09:23:32.920Z,79.58
2019-05-11T09:24:18.918Z,80.40
2019-05-11T09:25:18.243Z,80.66
2019-05-11T09:26:18.137Z,80.50
2019-05-11T09:27:18.385Z,80.26
2019-05-11T09:28:17.988Z,80.70
2019-05-11T09:29:17.937Z,81.25
2019-05-11T09:30:18.403Z,81.15
2019-05-11T09:31:18.878Z,81.04
2019-05-11T09:32:17.930Z,80.94
2019-05-11T09:33:20.472Z,81.39
2019-05-11T09:34:18.064Z,82.41
2019-05-11T09:35:18.873Z,82.41
2019-05-11T09:36:18.095Z,82.96
2019-05-11T09:37:18.371Z,83.37
2019-05-11T09:38:18.545Z,83.23
2019-05-11T09:39:17.729Z,83.33
2019-05-11T09:40:18.276Z,83.02
2019-05-11T09:41:18.062Z,84.49
2019-05-11T09:42:17.951Z,83.37
2019-05-11T09:43:17.851Z,83.37
2019-05-11T09:44:18.302Z,84.39
2019-05-11T09:45:18.701Z,84.08
2019-05-11T09:46:18.843Z,84.39
2019-05-11T09:47:18.949Z,84.08
2019-05-11T09:48:17.965Z,84.49
2019-05-11T09:49:18.531Z,84.80
2019-05-11T09:50:17.906Z,84.66
2019-05-11T09:51:18.488Z,84.04
2019-05-11T09:52:18.363Z,83.84
2019-05-11T09:53:17.720Z,84.45
2019-05-11T09:54:23.818Z,84.34
2019-05-11T09:55:19.016Z,84.75
2019-05-11T09:56:18.357Z,83.70
2019-05-11T09:57:18.473Z,82.57
2019-05-11T09:58:19.660Z,81.56
2019-05-11T09:59:17.906Z,82.54
2019-05-11T10:00:17.939Z,81.41
2019-05-11T10:01:18.257Z,81.41
2019-05-11T10:02:20.404Z,81.62
2019-05-11T10:03:18.800Z,81.52
2019-05-11T10:04:18.112Z,82.27
2019-05-11T10:05:18.869Z,82.57
2019-05-11T10:06:18.722Z,82.88
2019-05-11T10:07:18.086Z,82.92
2019-05-11T10:08:18.295Z,82.47
2019-05-11T10:09:18.608Z,83.18
2019-05-11T10:10:18.684Z,82.57
2019-05-11T10:11:18.711Z,83.12
2019-05-11T10:12:18.143Z,82.78
2019-05-11T10:13:18.568Z,83.18
2019-05-11T10:14:18.765Z,83.09
2019-05-11T10:15:18.677Z,82.98
2019-05-11T10:16:17.917Z,82.68
2019-05-11T10:17:18.209Z,83.49
2019-05-11T10:18:18.611Z,83.29
2019-05-11T10:19:17.939Z,83.70
2019-05-11T10:20:18.172Z,83.39
2019-05-11T10:21:18.566Z,83.80
2019-05-11T10:22:18.575Z,83.09
2019-05-11T10:23:18.591Z,83.18
2019-05-11T10:24:17.807Z,84.31
2019-05-11T10:25:18.178Z,84.11
2019-05-11T10:26:23.471Z,83.39
2019-05-11T10:27:18.704Z,84.41
2019-05-11T10:28:17.919Z,84.31
2019-05-11T10:29:18.266Z,84.04
2019-05-11T10:30:18.561Z,84.25
2019-05-11T10:31:18.062Z,84.34
2019-05-11T10:32:18.283Z,84.86
2019-05-11T10:33:18.627Z,85.16
2019-05-11T10:34:17.958Z,85.88
2019-05-11T10:35:18.376Z,85.77
2019-05-11T10:36:18.753Z,86.83
2019-05-11T10:37:17.689Z,86.80
2019-05-11T10:38:18.099Z,87.10
2019-05-11T10:39:18.461Z,87.00
2019-05-11T10:40:18.656Z,87.30
2019-05-11T10:41:18.166Z,86.90
2019-05-11T10:42:18.036Z,87.30
2019-05-11T10:43:18.339Z,87.61
2019-05-11T10:44:18.598Z,87.71
2019-05-11T10:45:17.974Z,87.61
2019-05-11T10:46:22.501Z,87.20
2019-05-11T10:47:18.470Z,87.71
2019-05-11T10:48:17.767Z,87.51
2019-05-11T10:49:18.313Z,87.82
2019-05-11T10:50:18.556Z,87.57
2019-05-11T10:51:18.409Z,87.06
2019-05-11T10:52:18.020Z,86.86
2019-05-11T10:53:18.341Z,86.45
2019-05-11T10:54:18.486Z,86.61
2019-05-11T10:55:18.974Z,86.55
2019-05-11T10:56:17.837Z,87.06
2019-05-11T10:57:16.151Z,86.41
2019-05-11T10:58:24.644Z,86.41
2019-05-11T10:59:18.300Z,86.71
2019-05-11T11:00:17.800Z,86.61
2019-05-11T11:01:18.135Z,86.10
2019-05-11T11:02:18.355Z,86.00
2019-05-11T11:03:17.907Z,85.49
2019-05-11T11:04:18.179Z,85.55
2019-05-11T11:05:18.527Z,85.14
2019-05-11T11:06:16.049Z,84.94
2019-05-11T11:07:17.284Z,85.66
2019-05-11T11:08:18.373Z,84.94
2019-05-11T11:09:17.774Z,84.80
2019-05-11T11:10:18.179Z,84.94
2019-05-11T11:11:18.272Z,84.39
2019-05-11T11:12:15.988Z,84.12
2019-05-11T11:13:16.026Z,84.70
2019-05-11T11:14:18.113Z,84.39
2019-05-11T11:15:18.157Z,84.09
2019-05-11T11:16:33.726Z,84.19
2019-05-11T11:17:19.039Z,84.09
2019-05-11T11:18:15.918Z,84.50
2019-05-11T11:19:18.179Z,83.78
2019-05-11T11:20:15.941Z,83.98
2019-05-11T11:21:20.106Z,84.09
2019-05-11T11:22:35.810Z,84.29
2019-05-11T11:23:17.781Z,84.09
2019-05-11T11:24:17.965Z,84.09
2019-05-11T11:25:17.748Z,84.35
2019-05-11T11:26:18.213Z,84.15
2019-05-11T11:27:15.839Z,83.74
2019-05-11T11:28:17.540Z,83.23
2019-05-11T11:29:17.969Z,82.42
2019-05-11T11:30:23.233Z,82.18
2019-05-11T11:31:18.376Z,82.68
2019-05-11T11:32:15.767Z,81.73
2019-05-11T11:33:15.757Z,81.02
2019-05-11T11:34:15.752Z,80.82
2019-05-11T11:35:15.743Z,80.78
2019-05-11T11:36:17.821Z,80.47
2019-05-11T11:37:17.531Z,81.49
2019-05-11T11:38:17.870Z,80.98
2019-05-11T11:39:15.697Z,80.13
2019-05-11T11:40:17.771Z,80.58
2019-05-11T11:41:17.871Z,80.27
2019-05-11T11:42:17.765Z,80.44
2019-05-11T11:43:17.897Z,79.25
2019-05-11T11:44:18.309Z,79.97
2019-05-11T11:45:18.111Z,79.86
2019-05-11T11:46:15.612Z,80.62
2019-05-11T11:47:20.763Z,81.12
2019-05-11T11:48:18.703Z,80.78
2019-05-11T11:49:15.584Z,79.97
2019-05-11T11:50:17.635Z,79.97
2019-05-11T11:51:15.617Z,80.07
2019-05-11T11:52:15.547Z,80.82
2019-05-11T11:53:15.570Z,80.78
2019-05-11T11:54:17.952Z,80.27
2019-05-11T11:55:15.532Z,80.03
2019-05-11T11:56:15.510Z,80.07
2019-05-11T11:57:15.495Z,79.63
2019-05-11T11:58:15.524Z,79.86
2019-05-11T11:59:17.668Z,80.78
2019-05-11T12:00:15.468Z,80.17
2019-05-11T12:01:15.452Z,80.17
2019-05-11T12:02:22.939Z,80.03
2019-05-11T12:03:15.427Z,80.03
2019-05-11T12:04:15.417Z,79.93
2019-05-11T12:05:17.534Z,79.97
2019-05-11T12:06:15.403Z,80.07
2019-05-11T12:07:17.765Z,80.07
2019-05-11T12:08:15.382Z,80.37
2019-05-11T12:09:18.011Z,81.23
2019-05-11T12:10:15.361Z,81.02
2019-05-11T12:11:15.363Z,80.98
2019-05-11T12:12:15.387Z,80.72
2019-05-11T12:13:15.331Z,80.82
2019-05-11T12:14:15.315Z,81.02
2019-05-11T12:15:17.602Z,81.02
2019-05-11T12:16:17.761Z,80.92
2019-05-11T12:17:15.317Z,82.59
2019-05-11T12:18:15.311Z,81.46
2019-05-11T12:19:15.260Z,82.38
2019-05-11T12:20:15.249Z,82.14
2019-05-11T12:21:15.496Z,82.18
2019-05-11T12:22:15.232Z,81.98
2019-05-11T12:23:15.216Z,83.09
2019-05-11T12:24:15.201Z,83.60
2019-05-11T12:25:15.235Z,83.91
2019-05-11T12:26:17.532Z,83.81
2019-05-11T12:27:15.342Z,84.21
2019-05-11T12:28:15.211Z,84.35
2019-05-11T12:29:15.175Z,84.25
2019-05-11T12:30:15.138Z,84.66
2019-05-11T12:31:15.131Z,85.47
2019-05-11T12:32:15.122Z,85.58
2019-05-11T12:33:15.150Z,86.08
2019-05-11T12:34:22.075Z,85.68
2019-05-11T12:35:15.084Z,85.37
2019-05-11T12:36:15.074Z,86.49
2019-05-11T12:37:15.092Z,86.90
2019-05-11T12:38:15.054Z,87.30
2019-05-11T12:39:15.052Z,86.90
2019-05-11T12:40:15.034Z,86.63
2019-05-11T12:41:15.033Z,87.55
2019-05-11T12:42:15.022Z,87.14
2019-05-11T12:43:14.996Z,87.75
2019-05-11T12:44:15.049Z,87.85
2019-05-11T12:45:15.006Z,87.45
2019-05-11T12:46:14.966Z,88.77
2019-05-11T12:47:22.231Z,88.77
2019-05-11T12:48:18.080Z,88.87
2019-05-11T12:49:14.976Z,89.38
2019-05-11T12:50:14.917Z,88.98
2019-05-11T12:51:14.919Z,89.59
2019-05-11T12:52:14.903Z,89.22